sensor_id;sensor_type;location;lat;lon;timestamp;temperature;humidity
21950;DHT22;11139;51.284;7.226;2022-12-10T00:01:17;3.60;99.90
21950;DHT22;11139;51.284;7.226;2022-12-10T00:03:43;3.60;99.90
21950;DHT22;11139;51.284;7.226;2022-12-10T00:06:10;3.60;99.90
21950;DHT22;11139;51.284;7.226;2022-12-10T00:08:36;3.60;99.90
21950;DHT22;11139;51.284;7.226;2022-12-10T00:11:02;3.60;99.90
21950;DHT22;11139;51.284;7.226;2022-12-10T00:13:28;3.60;99.90
21950;DHT22;11139;51.284;7.226;2022-12-10T00:15:54;3.60;99.90
21950;DHT22;11139;51.284;7.226;2022-12-10T00:18:19;3.60;99.90
21950;DHT22;11139;51.284;7.226;2022-12-10T00:20:45;3.60;99.90
21950;DHT22;11139;51.284;7.226;2022-12-10T00:23:10;3.60;99.90
21950;DHT22;11139;51.284;7.226;2022-12-10T00:25:36;3.60;99.90
21950;DHT22;11139;51.284;7.226;2022-12-10T00:28:01;3.50;99.90
21950;DHT22;11139;51.284;7.226;2022-12-10T00:30:27;3.60;99.90
21950;DHT22;11139;51.284;7.226;2022-12-10T00:32:52;3.60;99.90
21950;DHT22;11139;51.284;7.226;2022-12-10T00:35:18;3.60;99.90
21950;DHT22;11139;51.284;7.226;2022-12-10T00:37:43;3.60;99.90
21950;DHT22;11139;51.284;7.226;2022-12-10T00:40:09;3.60;99.90
21950;DHT22;11139;51.284;7.226;2022-12-10T00:42:37;3.60;99.90
21950;DHT22;11139;51.284;7.226;2022-12-10T00:45:03;3.60;99.90
21950;DHT22;11139;51.284;7.226;2022-12-10T00:47:29;3.60;99.90
21950;DHT22;11139;51.284;7.226;2022-12-10T00:49:54;3.50;99.90
21950;DHT22;11139;51.284;7.226;2022-12-10T00:52:20;3.50;99.90
21950;DHT22;11139;51.284;7.226;2022-12-10T00:54:45;3.50;99.90
21950;DHT22;11139;51.284;7.226;2022-12-10T00:57:11;3.50;99.90
21950;DHT22;11139;51.284;7.226;2022-12-10T00:59:36;3.50;99.90
21950;DHT22;11139;51.284;7.226;2022-12-10T01:02:02;3.50;99.90
21950;DHT22;11139;51.284;7.226;2022-12-10T01:04:27;3.50;99.90
21950;DHT22;11139;51.284;7.226;2022-12-10T01:06:53;3.50;99.90
21950;DHT22;11139;51.284;7.226;2022-12-10T01:09:20;3.50;99.90
21950;DHT22;11139;51.284;7.226;2022-12-10T01:11:47;3.50;99.90
21950;DHT22;11139;51.284;7.226;2022-12-10T01:14:14;3.50;99.90
21950;DHT22;11139;51.284;7.226;2022-12-10T01:16:40;3.50;99.90
21950;DHT22;11139;51.284;7.226;2022-12-10T01:19:05;3.50;99.90
21950;DHT22;11139;51.284;7.226;2022-12-10T01:21:31;3.50;99.90
21950;DHT22;11139;51.284;7.226;2022-12-10T01:23:57;3.50;99.90
21950;DHT22;11139;51.284;7.226;2022-12-10T01:26:24;3.50;99.90
21950;DHT22;11139;51.284;7.226;2022-12-10T01:28:50;3.50;99.90
21950;DHT22;11139;51.284;7.226;2022-12-10T01:31:21;3.50;99.90
21950;DHT22;11139;51.284;7.226;2022-12-10T01:33:47;3.50;99.90
21950;DHT22;11139;51.284;7.226;2022-12-10T01:36:14;3.50;99.90
21950;DHT22;11139;51.284;7.226;2022-12-10T01:38:40;3.50;99.90
21950;DHT22;11139;51.284;7.226;2022-12-10T01:41:06;3.50;99.90
21950;DHT22;11139;51.284;7.226;2022-12-10T01:46:13;3.40;99.90
21950;DHT22;11139;51.284;7.226;2022-12-10T01:48:39;3.50;99.90
21950;DHT22;11139;51.284;7.226;2022-12-10T01:51:04;3.50;99.90
21950;DHT22;11139;51.284;7.226;2022-12-10T01:53:30;3.50;99.90
21950;DHT22;11139;51.284;7.226;2022-12-10T01:55:56;3.50;99.90
21950;DHT22;11139;51.284;7.226;2022-12-10T01:58:21;3.40;99.90
21950;DHT22;11139;51.284;7.226;2022-12-10T02:01:10;3.50;99.90
21950;DHT22;11139;51.284;7.226;2022-12-10T02:03:54;3.40;99.90
21950;DHT22;11139;51.284;7.226;2022-12-10T02:08:54;3.40;99.90
21950;DHT22;11139;51.284;7.226;2022-12-10T02:11:24;3.40;99.90
21950;DHT22;11139;51.284;7.226;2022-12-10T02:16:20;3.40;99.90
21950;DHT22;11139;51.284;7.226;2022-12-10T02:18:55;3.40;99.90
21950;DHT22;11139;51.284;7.226;2022-12-10T02:21:23;3.40;99.90
21950;DHT22;11139;51.284;7.226;2022-12-10T02:23:51;3.40;99.90
21950;DHT22;11139;51.284;7.226;2022-12-10T02:29:14;3.40;99.90
21950;DHT22;11139;51.284;7.226;2022-12-10T02:31:42;3.40;99.90
21950;DHT22;11139;51.284;7.226;2022-12-10T02:34:08;3.40;99.90
21950;DHT22;11139;51.284;7.226;2022-12-10T02:36:35;3.40;99.90
21950;DHT22;11139;51.284;7.226;2022-12-10T02:39:02;3.40;99.90
21950;DHT22;11139;51.284;7.226;2022-12-10T02:41:30;3.40;99.90
21950;DHT22;11139;51.284;7.226;2022-12-10T02:43:58;3.40;99.90
21950;DHT22;11139;51.284;7.226;2022-12-10T02:46:25;3.40;99.90
21950;DHT22;11139;51.284;7.226;2022-12-10T02:48:53;3.40;99.90
21950;DHT22;11139;51.284;7.226;2022-12-10T02:51:19;3.40;99.90
21950;DHT22;11139;51.284;7.226;2022-12-10T02:53:45;3.40;99.90
21950;DHT22;11139;51.284;7.226;2022-12-10T02:56:14;3.30;99.90
21950;DHT22;11139;51.284;7.226;2022-12-10T03:01:25;3.30;99.90
21950;DHT22;11139;51.284;7.226;2022-12-10T03:03:56;3.30;99.90
21950;DHT22;11139;51.284;7.226;2022-12-10T03:06:34;3.30;99.90
21950;DHT22;11139;51.284;7.226;2022-12-10T03:09:04;3.30;99.90
21950;DHT22;11139;51.284;7.226;2022-12-10T03:11:30;3.30;99.90
21950;DHT22;11139;51.284;7.226;2022-12-10T03:16:25;3.30;99.90
21950;DHT22;11139;51.284;7.226;2022-12-10T03:18:52;3.30;99.90
21950;DHT22;11139;51.284;7.226;2022-12-10T03:21:20;3.30;99.90
21950;DHT22;11139;51.284;7.226;2022-12-10T03:23:46;3.30;99.90
21950;DHT22;11139;51.284;7.226;2022-12-10T03:26:12;3.30;99.90
21950;DHT22;11139;51.284;7.226;2022-12-10T03:28:39;3.30;99.90
21950;DHT22;11139;51.284;7.226;2022-12-10T03:31:06;3.30;99.90
21950;DHT22;11139;51.284;7.226;2022-12-10T03:33:31;3.30;99.90
21950;DHT22;11139;51.284;7.226;2022-12-10T03:35:58;3.30;99.90
21950;DHT22;11139;51.284;7.226;2022-12-10T03:38:23;3.30;99.90
21950;DHT22;11139;51.284;7.226;2022-12-10T03:40:48;3.30;99.90
21950;DHT22;11139;51.284;7.226;2022-12-10T03:43:14;3.30;99.90
21950;DHT22;11139;51.284;7.226;2022-12-10T03:45:40;3.30;99.90
21950;DHT22;11139;51.284;7.226;2022-12-10T03:48:06;3.30;99.90
21950;DHT22;11139;51.284;7.226;2022-12-10T03:50:31;3.30;99.90
21950;DHT22;11139;51.284;7.226;2022-12-10T03:52:57;3.30;99.90
21950;DHT22;11139;51.284;7.226;2022-12-10T03:55:22;3.20;99.90
21950;DHT22;11139;51.284;7.226;2022-12-10T03:57:48;3.30;99.90
21950;DHT22;11139;51.284;7.226;2022-12-10T04:00:13;3.30;99.90
21950;DHT22;11139;51.284;7.226;2022-12-10T04:02:39;3.30;99.90
21950;DHT22;11139;51.284;7.226;2022-12-10T04:05:04;3.20;99.90
21950;DHT22;11139;51.284;7.226;2022-12-10T04:07:32;3.20;99.90
21950;DHT22;11139;51.284;7.226;2022-12-10T04:09:57;3.20;99.90
21950;DHT22;11139;51.284;7.226;2022-12-10T04:12:22;3.20;99.90
21950;DHT22;11139;51.284;7.226;2022-12-10T04:14:48;3.20;99.90
21950;DHT22;11139;51.284;7.226;2022-12-10T04:17:32;3.20;99.90
21950;DHT22;11139;51.284;7.226;2022-12-10T04:19:58;3.20;99.90
21950;DHT22;11139;51.284;7.226;2022-12-10T04:22:24;3.20;99.90
21950;DHT22;11139;51.284;7.226;2022-12-10T04:25:10;3.20;99.90
21950;DHT22;11139;51.284;7.226;2022-12-10T04:27:55;3.20;99.90
21950;DHT22;11139;51.284;7.226;2022-12-10T04:30:20;3.20;99.90
21950;DHT22;11139;51.284;7.226;2022-12-10T04:32:46;3.20;99.90
21950;DHT22;11139;51.284;7.226;2022-12-10T04:35:11;3.20;99.90
21950;DHT22;11139;51.284;7.226;2022-12-10T04:37:37;3.20;99.90
21950;DHT22;11139;51.284;7.226;2022-12-10T04:40:02;3.20;99.90
21950;DHT22;11139;51.284;7.226;2022-12-10T04:42:28;3.20;99.90
21950;DHT22;11139;51.284;7.226;2022-12-10T04:44:54;3.20;99.90
21950;DHT22;11139;51.284;7.226;2022-12-10T04:47:19;3.20;99.90
21950;DHT22;11139;51.284;7.226;2022-12-10T04:49:45;3.20;99.90
21950;DHT22;11139;51.284;7.226;2022-12-10T04:52:11;3.20;99.90
21950;DHT22;11139;51.284;7.226;2022-12-10T04:54:37;3.20;99.90
21950;DHT22;11139;51.284;7.226;2022-12-10T04:57:02;3.20;99.90
21950;DHT22;11139;51.284;7.226;2022-12-10T04:59:28;3.10;99.90
21950;DHT22;11139;51.284;7.226;2022-12-10T05:01:53;3.20;99.90
21950;DHT22;11139;51.284;7.226;2022-12-10T05:04:19;3.20;99.90
21950;DHT22;11139;51.284;7.226;2022-12-10T05:06:45;3.20;99.90
21950;DHT22;11139;51.284;7.226;2022-12-10T05:09:12;3.20;99.90
21950;DHT22;11139;51.284;7.226;2022-12-10T05:11:37;3.20;99.90
21950;DHT22;11139;51.284;7.226;2022-12-10T05:14:03;3.20;99.90
21950;DHT22;11139;51.284;7.226;2022-12-10T05:16:29;3.20;99.90
21950;DHT22;11139;51.284;7.226;2022-12-10T05:18:55;3.10;99.90
21950;DHT22;11139;51.284;7.226;2022-12-10T05:21:22;3.10;99.90
21950;DHT22;11139;51.284;7.226;2022-12-10T05:23:48;3.10;99.90
21950;DHT22;11139;51.284;7.226;2022-12-10T05:28:40;3.10;99.90
21950;DHT22;11139;51.284;7.226;2022-12-10T05:31:11;3.10;99.90
21950;DHT22;11139;51.284;7.226;2022-12-10T05:33:36;3.10;99.90
21950;DHT22;11139;51.284;7.226;2022-12-10T05:36:02;3.10;99.90
21950;DHT22;11139;51.284;7.226;2022-12-10T05:38:29;3.10;99.90
21950;DHT22;11139;51.284;7.226;2022-12-10T05:40:54;3.10;99.90
21950;DHT22;11139;51.284;7.226;2022-12-10T05:43:20;3.10;99.90
21950;DHT22;11139;51.284;7.226;2022-12-10T05:45:46;3.10;99.90
21950;DHT22;11139;51.284;7.226;2022-12-10T05:48:12;3.10;99.90
21950;DHT22;11139;51.284;7.226;2022-12-10T05:50:37;3.10;99.90
21950;DHT22;11139;51.284;7.226;2022-12-10T05:53:03;3.10;99.90
21950;DHT22;11139;51.284;7.226;2022-12-10T05:55:28;3.10;99.90
21950;DHT22;11139;51.284;7.226;2022-12-10T05:57:54;3.10;99.90
21950;DHT22;11139;51.284;7.226;2022-12-10T06:00:20;3.10;99.90
21950;DHT22;11139;51.284;7.226;2022-12-10T06:02:49;3.10;99.90
21950;DHT22;11139;51.284;7.226;2022-12-10T06:05:14;3.10;99.90
21950;DHT22;11139;51.284;7.226;2022-12-10T06:07:40;3.00;99.90
21950;DHT22;11139;51.284;7.226;2022-12-10T06:10:05;3.10;99.90
21950;DHT22;11139;51.284;7.226;2022-12-10T06:12:31;3.10;99.90
21950;DHT22;11139;51.284;7.226;2022-12-10T06:14:56;3.00;99.90
21950;DHT22;11139;51.284;7.226;2022-12-10T06:17:22;3.00;99.90
21950;DHT22;11139;51.284;7.226;2022-12-10T06:19:47;3.00;99.90
21950;DHT22;11139;51.284;7.226;2022-12-10T06:22:13;3.10;99.90
21950;DHT22;11139;51.284;7.226;2022-12-10T06:24:38;3.00;99.90
21950;DHT22;11139;51.284;7.226;2022-12-10T06:27:04;3.00;99.90
21950;DHT22;11139;51.284;7.226;2022-12-10T06:29:30;3.00;99.90
21950;DHT22;11139;51.284;7.226;2022-12-10T06:31:56;3.00;99.90
21950;DHT22;11139;51.284;7.226;2022-12-10T06:34:21;3.00;99.90
21950;DHT22;11139;51.284;7.226;2022-12-10T06:36:47;3.00;99.90
21950;DHT22;11139;51.284;7.226;2022-12-10T06:39:12;3.00;99.90
21950;DHT22;11139;51.284;7.226;2022-12-10T06:41:38;3.00;99.90
21950;DHT22;11139;51.284;7.226;2022-12-10T06:44:06;3.00;99.90
21950;DHT22;11139;51.284;7.226;2022-12-10T06:46:32;3.00;99.90
21950;DHT22;11139;51.284;7.226;2022-12-10T06:48:57;3.00;99.90
21950;DHT22;11139;51.284;7.226;2022-12-10T06:51:23;3.00;99.90
21950;DHT22;11139;51.284;7.226;2022-12-10T06:53:48;3.00;99.90
21950;DHT22;11139;51.284;7.226;2022-12-10T06:56:15;3.00;99.90
21950;DHT22;11139;51.284;7.226;2022-12-10T06:58:41;3.00;99.90
21950;DHT22;11139;51.284;7.226;2022-12-10T07:01:08;3.00;99.90
21950;DHT22;11139;51.284;7.226;2022-12-10T07:03:34;3.00;99.90
21950;DHT22;11139;51.284;7.226;2022-12-10T07:06:00;3.00;99.90
21950;DHT22;11139;51.284;7.226;2022-12-10T07:08:25;3.00;99.90
21950;DHT22;11139;51.284;7.226;2022-12-10T07:10:51;3.00;99.90
21950;DHT22;11139;51.284;7.226;2022-12-10T07:13:17;3.00;99.90
21950;DHT22;11139;51.284;7.226;2022-12-10T07:15:42;3.00;99.90
21950;DHT22;11139;51.284;7.226;2022-12-10T07:18:08;3.00;99.90
21950;DHT22;11139;51.284;7.226;2022-12-10T07:20:33;3.00;99.90
21950;DHT22;11139;51.284;7.226;2022-12-10T07:22:59;3.00;99.90
21950;DHT22;11139;51.284;7.226;2022-12-10T07:25:24;3.00;99.90
21950;DHT22;11139;51.284;7.226;2022-12-10T07:27:50;3.00;99.90
21950;DHT22;11139;51.284;7.226;2022-12-10T07:30:15;3.00;99.90
21950;DHT22;11139;51.284;7.226;2022-12-10T07:32:41;2.90;99.90
21950;DHT22;11139;51.284;7.226;2022-12-10T07:35:06;3.00;99.90
21950;DHT22;11139;51.284;7.226;2022-12-10T07:37:32;3.00;99.90
21950;DHT22;11139;51.284;7.226;2022-12-10T07:39:58;3.00;99.90
21950;DHT22;11139;51.284;7.226;2022-12-10T07:42:23;2.90;99.90
21950;DHT22;11139;51.284;7.226;2022-12-10T07:44:49;2.90;99.90
21950;DHT22;11139;51.284;7.226;2022-12-10T07:47:15;2.90;99.90
21950;DHT22;11139;51.284;7.226;2022-12-10T07:49:40;2.90;99.90
21950;DHT22;11139;51.284;7.226;2022-12-10T07:52:06;2.90;99.90
21950;DHT22;11139;51.284;7.226;2022-12-10T07:54:31;2.90;99.90
21950;DHT22;11139;51.284;7.226;2022-12-10T07:56:57;2.90;99.90
21950;DHT22;11139;51.284;7.226;2022-12-10T07:59:22;2.90;99.90
21950;DHT22;11139;51.284;7.226;2022-12-10T08:01:48;2.90;99.90
21950;DHT22;11139;51.284;7.226;2022-12-10T08:04:14;2.90;99.90
21950;DHT22;11139;51.284;7.226;2022-12-10T08:06:40;2.90;99.90
21950;DHT22;11139;51.284;7.226;2022-12-10T08:09:05;2.90;99.90
21950;DHT22;11139;51.284;7.226;2022-12-10T08:11:31;2.90;99.90
21950;DHT22;11139;51.284;7.226;2022-12-10T08:13:57;2.90;99.90
21950;DHT22;11139;51.284;7.226;2022-12-10T08:16:24;2.90;99.90
21950;DHT22;11139;51.284;7.226;2022-12-10T08:18:54;2.90;99.90
21950;DHT22;11139;51.284;7.226;2022-12-10T08:21:22;2.90;99.90
21950;DHT22;11139;51.284;7.226;2022-12-10T08:23:48;2.90;99.90
21950;DHT22;11139;51.284;7.226;2022-12-10T08:26:15;2.90;99.90
21950;DHT22;11139;51.284;7.226;2022-12-10T08:28:41;2.90;99.90
21950;DHT22;11139;51.284;7.226;2022-12-10T08:31:07;2.80;99.90
21950;DHT22;11139;51.284;7.226;2022-12-10T08:33:34;2.90;99.90
21950;DHT22;11139;51.284;7.226;2022-12-10T08:36:00;2.90;99.90
21950;DHT22;11139;51.284;7.226;2022-12-10T08:38:25;2.90;99.90
21950;DHT22;11139;51.284;7.226;2022-12-10T08:40:53;2.90;99.90
21950;DHT22;11139;51.284;7.226;2022-12-10T08:43:18;2.90;99.90
21950;DHT22;11139;51.284;7.226;2022-12-10T08:45:44;2.80;99.90
21950;DHT22;11139;51.284;7.226;2022-12-10T08:48:09;2.90;99.90
21950;DHT22;11139;51.284;7.226;2022-12-10T08:50:35;2.80;99.90
21950;DHT22;11139;51.284;7.226;2022-12-10T08:53:01;2.80;99.90
21950;DHT22;11139;51.284;7.226;2022-12-10T08:55:27;2.80;99.90
21950;DHT22;11139;51.284;7.226;2022-12-10T08:57:52;2.80;99.90
21950;DHT22;11139;51.284;7.226;2022-12-10T09:00:17;2.80;99.90
21950;DHT22;11139;51.284;7.226;2022-12-10T09:02:44;2.80;99.90
21950;DHT22;11139;51.284;7.226;2022-12-10T09:05:09;2.80;99.90
21950;DHT22;11139;51.284;7.226;2022-12-10T09:07:35;2.80;99.90
21950;DHT22;11139;51.284;7.226;2022-12-10T09:10:00;2.80;99.90
21950;DHT22;11139;51.284;7.226;2022-12-10T09:12:26;2.80;99.90
21950;DHT22;11139;51.284;7.226;2022-12-10T09:14:51;2.70;99.90
21950;DHT22;11139;51.284;7.226;2022-12-10T09:17:17;2.80;99.90
21950;DHT22;11139;51.284;7.226;2022-12-10T09:19:42;2.80;99.90
21950;DHT22;11139;51.284;7.226;2022-12-10T09:22:08;2.80;99.90
21950;DHT22;11139;51.284;7.226;2022-12-10T09:24:33;2.70;99.90
21950;DHT22;11139;51.284;7.226;2022-12-10T09:27:00;2.80;99.90
21950;DHT22;11139;51.284;7.226;2022-12-10T09:29:26;2.80;99.90
21950;DHT22;11139;51.284;7.226;2022-12-10T09:31:52;2.80;99.90
21950;DHT22;11139;51.284;7.226;2022-12-10T09:34:17;2.70;99.90
21950;DHT22;11139;51.284;7.226;2022-12-10T09:36:43;2.80;99.90
21950;DHT22;11139;51.284;7.226;2022-12-10T09:39:09;2.70;99.90
21950;DHT22;11139;51.284;7.226;2022-12-10T09:44:31;2.70;99.90
21950;DHT22;11139;51.284;7.226;2022-12-10T09:46:59;2.70;99.90
21950;DHT22;11139;51.284;7.226;2022-12-10T09:49:32;2.70;99.90
21950;DHT22;11139;51.284;7.226;2022-12-10T09:51:59;2.70;99.90
21950;DHT22;11139;51.284;7.226;2022-12-10T09:54:26;2.70;99.90
21950;DHT22;11139;51.284;7.226;2022-12-10T09:56:53;2.70;99.90
21950;DHT22;11139;51.284;7.226;2022-12-10T10:01:45;2.70;99.90
21950;DHT22;11139;51.284;7.226;2022-12-10T10:04:12;2.70;99.90
21950;DHT22;11139;51.284;7.226;2022-12-10T10:06:38;2.70;99.90
21950;DHT22;11139;51.284;7.226;2022-12-10T10:09:03;2.70;99.90
21950;DHT22;11139;51.284;7.226;2022-12-10T10:11:31;2.70;99.90
21950;DHT22;11139;51.284;7.226;2022-12-10T10:16:36;2.70;99.90
21950;DHT22;11139;51.284;7.226;2022-12-10T10:19:04;2.70;99.90
21950;DHT22;11139;51.284;7.226;2022-12-10T10:21:34;2.70;99.90
21950;DHT22;11139;51.284;7.226;2022-12-10T10:24:01;2.70;99.90
21950;DHT22;11139;51.284;7.226;2022-12-10T10:26:27;2.70;99.90
21950;DHT22;11139;51.284;7.226;2022-12-10T10:28:57;2.70;99.90
21950;DHT22;11139;51.284;7.226;2022-12-10T10:31:25;2.70;99.90
21950;DHT22;11139;51.284;7.226;2022-12-10T10:33:52;2.70;99.90
21950;DHT22;11139;51.284;7.226;2022-12-10T10:36:35;2.70;99.90
21950;DHT22;11139;51.284;7.226;2022-12-10T10:39:10;2.70;99.90
21950;DHT22;11139;51.284;7.226;2022-12-10T10:41:37;2.70;99.90
21950;DHT22;11139;51.284;7.226;2022-12-10T10:44:05;2.70;99.90
21950;DHT22;11139;51.284;7.226;2022-12-10T10:46:38;2.70;99.90
21950;DHT22;11139;51.284;7.226;2022-12-10T10:51:49;2.70;99.90
21950;DHT22;11139;51.284;7.226;2022-12-10T10:54:37;2.60;99.90
21950;DHT22;11139;51.284;7.226;2022-12-10T10:57:03;2.70;99.90
21950;DHT22;11139;51.284;7.226;2022-12-10T10:59:30;2.70;99.90
21950;DHT22;11139;51.284;7.226;2022-12-10T11:01:59;2.60;99.90
21950;DHT22;11139;51.284;7.226;2022-12-10T11:07:19;2.60;99.90
21950;DHT22;11139;51.284;7.226;2022-12-10T11:12:58;2.60;99.90
21950;DHT22;11139;51.284;7.226;2022-12-10T11:15:53;2.60;99.90
21950;DHT22;11139;51.284;7.226;2022-12-10T11:18:23;2.60;99.90
21950;DHT22;11139;51.284;7.226;2022-12-10T11:21:15;2.60;99.90
21950;DHT22;11139;51.284;7.226;2022-12-10T11:23:42;2.60;99.90
21950;DHT22;11139;51.284;7.226;2022-12-10T11:31:42;2.60;99.90
21950;DHT22;11139;51.284;7.226;2022-12-10T11:39:17;2.60;99.90
21950;DHT22;11139;51.284;7.226;2022-12-10T11:42:13;2.60;99.90
21950;DHT22;11139;51.284;7.226;2022-12-10T11:44:43;2.60;99.90
21950;DHT22;11139;51.284;7.226;2022-12-10T11:49:57;2.60;99.90
21950;DHT22;11139;51.284;7.226;2022-12-10T11:58:03;2.60;99.90
21950;DHT22;11139;51.284;7.226;2022-12-10T12:05:19;2.60;99.90
21950;DHT22;11139;51.284;7.226;2022-12-10T12:13:19;2.60;99.90
21950;DHT22;11139;51.284;7.226;2022-12-10T12:15:50;2.60;99.90
21950;DHT22;11139;51.284;7.226;2022-12-10T12:18:18;2.60;99.90
21950;DHT22;11139;51.284;7.226;2022-12-10T12:20:48;2.60;99.90
21950;DHT22;11139;51.284;7.226;2022-12-10T12:23:16;2.60;99.90
21950;DHT22;11139;51.284;7.226;2022-12-10T12:25:47;2.60;99.90
21950;DHT22;11139;51.284;7.226;2022-12-10T12:30:41;2.60;99.90
21950;DHT22;11139;51.284;7.226;2022-12-10T12:33:10;2.60;99.90
21950;DHT22;11139;51.284;7.226;2022-12-10T12:38:51;2.60;99.90
21950;DHT22;11139;51.284;7.226;2022-12-10T12:44:00;2.60;99.90
21950;DHT22;11139;51.284;7.226;2022-12-10T12:46:42;2.60;99.90
21950;DHT22;11139;51.284;7.226;2022-12-10T12:51:54;2.60;99.90
21950;DHT22;11139;51.284;7.226;2022-12-10T12:54:21;2.60;99.90
21950;DHT22;11139;51.284;7.226;2022-12-10T12:56:55;2.60;99.90
21950;DHT22;11139;51.284;7.226;2022-12-10T13:01:56;2.60;99.90
21950;DHT22;11139;51.284;7.226;2022-12-10T13:04:23;2.60;99.90
21950;DHT22;11139;51.284;7.226;2022-12-10T13:09:33;2.60;99.90
21950;DHT22;11139;51.284;7.226;2022-12-10T13:14:36;2.30;99.90
21950;DHT22;11139;51.284;7.226;2022-12-10T13:48:53;2.50;99.90
21950;DHT22;11139;51.284;7.226;2022-12-10T14:19:44;2.50;99.90
21950;DHT22;11139;51.284;7.226;2022-12-10T14:31:52;2.50;99.90
21950;DHT22;11139;51.284;7.226;2022-12-10T14:37:39;2.50;99.90
21950;DHT22;11139;51.284;7.226;2022-12-10T14:43:45;2.50;99.90
21950;DHT22;11139;51.284;7.226;2022-12-10T15:02:29;2.40;99.90
21950;DHT22;11139;51.284;7.226;2022-12-10T15:04:55;2.40;99.90
21950;DHT22;11139;51.284;7.226;2022-12-10T15:07:22;2.40;99.90
21950;DHT22;11139;51.284;7.226;2022-12-10T15:09:49;2.50;99.90
21950;DHT22;11139;51.284;7.226;2022-12-10T15:12:27;2.50;99.90
21950;DHT22;11139;51.284;7.226;2022-12-10T15:14:54;2.60;99.90
21950;DHT22;11139;51.284;7.226;2022-12-10T15:17:35;2.60;99.90
21950;DHT22;11139;51.284;7.226;2022-12-10T15:20:02;2.60;99.90
21950;DHT22;11139;51.284;7.226;2022-12-10T15:22:28;2.60;99.90
21950;DHT22;11139;51.284;7.226;2022-12-10T15:24:55;2.70;99.90
21950;DHT22;11139;51.284;7.226;2022-12-10T15:27:21;2.70;99.90
21950;DHT22;11139;51.284;7.226;2022-12-10T15:29:48;2.70;99.90
21950;DHT22;11139;51.284;7.226;2022-12-10T15:32:15;2.70;99.90
21950;DHT22;11139;51.284;7.226;2022-12-10T15:34:44;2.70;99.90
21950;DHT22;11139;51.284;7.226;2022-12-10T15:37:18;2.70;99.90
21950;DHT22;11139;51.284;7.226;2022-12-10T15:39:46;2.70;99.90
21950;DHT22;11139;51.284;7.226;2022-12-10T15:42:27;2.70;99.90
21950;DHT22;11139;51.284;7.226;2022-12-10T15:44:55;2.70;99.90
21950;DHT22;11139;51.284;7.226;2022-12-10T15:47:22;2.70;99.90
21950;DHT22;11139;51.284;7.226;2022-12-10T15:49:49;2.70;99.90
21950;DHT22;11139;51.284;7.226;2022-12-10T15:52:15;2.70;99.90
21950;DHT22;11139;51.284;7.226;2022-12-10T15:54:42;2.70;99.90
21950;DHT22;11139;51.284;7.226;2022-12-10T15:57:12;2.70;99.90
21950;DHT22;11139;51.284;7.226;2022-12-10T15:59:38;2.70;99.90
21950;DHT22;11139;51.284;7.226;2022-12-10T16:02:07;2.70;99.90
21950;DHT22;11139;51.284;7.226;2022-12-10T16:04:39;2.70;99.90
21950;DHT22;11139;51.284;7.226;2022-12-10T16:07:07;2.70;99.90
21950;DHT22;11139;51.284;7.226;2022-12-10T16:09:32;2.70;99.90
21950;DHT22;11139;51.284;7.226;2022-12-10T16:11:58;2.70;99.90
21950;DHT22;11139;51.284;7.226;2022-12-10T16:14:24;2.70;99.90
21950;DHT22;11139;51.284;7.226;2022-12-10T16:16:50;2.70;99.90
21950;DHT22;11139;51.284;7.226;2022-12-10T16:19:15;2.70;99.90
21950;DHT22;11139;51.284;7.226;2022-12-10T16:21:40;2.70;99.90
21950;DHT22;11139;51.284;7.226;2022-12-10T16:24:06;2.70;99.90
21950;DHT22;11139;51.284;7.226;2022-12-10T16:26:32;2.70;99.90
21950;DHT22;11139;51.284;7.226;2022-12-10T16:28:57;2.70;99.90
21950;DHT22;11139;51.284;7.226;2022-12-10T16:31:22;2.70;99.90
21950;DHT22;11139;51.284;7.226;2022-12-10T16:33:48;2.70;99.90
21950;DHT22;11139;51.284;7.226;2022-12-10T16:36:16;2.70;99.90
21950;DHT22;11139;51.284;7.226;2022-12-10T16:38:42;2.70;99.90
21950;DHT22;11139;51.284;7.226;2022-12-10T16:41:18;2.70;99.90
21950;DHT22;11139;51.284;7.226;2022-12-10T16:43:44;2.70;99.90
21950;DHT22;11139;51.284;7.226;2022-12-10T16:46:10;2.60;99.90
21950;DHT22;11139;51.284;7.226;2022-12-10T16:48:36;2.70;99.90
21950;DHT22;11139;51.284;7.226;2022-12-10T16:51:02;2.60;99.90
21950;DHT22;11139;51.284;7.226;2022-12-10T16:53:28;2.70;99.90
21950;DHT22;11139;51.284;7.226;2022-12-10T16:55:54;2.60;99.90
21950;DHT22;11139;51.284;7.226;2022-12-10T16:58:20;2.60;99.90
21950;DHT22;11139;51.284;7.226;2022-12-10T17:00:47;2.70;99.90
21950;DHT22;11139;51.284;7.226;2022-12-10T17:03:13;2.70;99.90
21950;DHT22;11139;51.284;7.226;2022-12-10T17:05:53;2.60;99.90
21950;DHT22;11139;51.284;7.226;2022-12-10T17:08:19;2.60;99.90
21950;DHT22;11139;51.284;7.226;2022-12-10T17:10:45;2.70;99.90
21950;DHT22;11139;51.284;7.226;2022-12-10T17:13:29;2.70;99.90
21950;DHT22;11139;51.284;7.226;2022-12-10T17:15:58;2.60;99.90
21950;DHT22;11139;51.284;7.226;2022-12-10T17:18:23;2.60;99.90
21950;DHT22;11139;51.284;7.226;2022-12-10T17:20:49;2.60;99.90
21950;DHT22;11139;51.284;7.226;2022-12-10T17:23:15;2.60;99.90
21950;DHT22;11139;51.284;7.226;2022-12-10T17:25:41;2.60;99.90
21950;DHT22;11139;51.284;7.226;2022-12-10T17:28:14;2.60;99.90
21950;DHT22;11139;51.284;7.226;2022-12-10T17:30:40;2.60;99.90
21950;DHT22;11139;51.284;7.226;2022-12-10T17:33:06;2.60;99.90
21950;DHT22;11139;51.284;7.226;2022-12-10T17:35:31;2.60;99.90
21950;DHT22;11139;51.284;7.226;2022-12-10T17:37:57;2.60;99.90
21950;DHT22;11139;51.284;7.226;2022-12-10T17:40:23;2.60;99.90
21950;DHT22;11139;51.284;7.226;2022-12-10T17:42:49;2.60;99.90
21950;DHT22;11139;51.284;7.226;2022-12-10T17:45:16;2.60;99.90
21950;DHT22;11139;51.284;7.226;2022-12-10T17:47:42;2.60;99.90
21950;DHT22;11139;51.284;7.226;2022-12-10T17:50:27;2.60;99.90
21950;DHT22;11139;51.284;7.226;2022-12-10T17:52:54;2.60;99.90
21950;DHT22;11139;51.284;7.226;2022-12-10T17:55:20;2.60;99.90
21950;DHT22;11139;51.284;7.226;2022-12-10T17:57:46;2.60;99.90
21950;DHT22;11139;51.284;7.226;2022-12-10T18:00:12;2.60;99.90
21950;DHT22;11139;51.284;7.226;2022-12-10T18:02:38;2.70;99.90
21950;DHT22;11139;51.284;7.226;2022-12-10T18:05:04;2.60;99.90
21950;DHT22;11139;51.284;7.226;2022-12-10T18:07:29;2.60;99.90
21950;DHT22;11139;51.284;7.226;2022-12-10T18:09:55;2.60;99.90
21950;DHT22;11139;51.284;7.226;2022-12-10T18:12:20;2.60;99.90
21950;DHT22;11139;51.284;7.226;2022-12-10T18:14:46;2.60;99.90
21950;DHT22;11139;51.284;7.226;2022-12-10T18:17:12;2.60;99.90
21950;DHT22;11139;51.284;7.226;2022-12-10T18:19:37;2.60;99.90
21950;DHT22;11139;51.284;7.226;2022-12-10T18:22:03;2.60;99.90
21950;DHT22;11139;51.284;7.226;2022-12-10T18:24:29;2.60;99.90
21950;DHT22;11139;51.284;7.226;2022-12-10T18:26:54;2.60;99.90
21950;DHT22;11139;51.284;7.226;2022-12-10T18:29:20;2.60;99.90
21950;DHT22;11139;51.284;7.226;2022-12-10T18:31:45;2.60;99.90
21950;DHT22;11139;51.284;7.226;2022-12-10T18:34:12;2.60;99.90
21950;DHT22;11139;51.284;7.226;2022-12-10T18:36:39;2.60;99.90
21950;DHT22;11139;51.284;7.226;2022-12-10T18:39:06;2.60;99.90
21950;DHT22;11139;51.284;7.226;2022-12-10T18:41:32;2.60;99.90